createdAt,value
2023-04-03T00:01:41.598Z,13.93
2023-04-03T00:04:10.562Z,15.77
2023-04-03T00:06:39.741Z,14.38
2023-04-03T00:09:10.490Z,14.45
2023-04-03T00:11:39.583Z,14.65
2023-04-03T00:14:08.552Z,13.63
2023-04-03T00:16:37.568Z,14.85
2023-04-03T00:19:07.282Z,14.23
2023-04-03T00:21:36.405Z,15.25
2023-04-03T00:24:05.325Z,14.30
2023-04-03T00:26:34.389Z,14.50
2023-04-03T00:29:03.302Z,16.05
2023-04-03T00:31:32.496Z,16.15
2023-04-03T00:34:01.399Z,16.00
2023-04-03T00:36:30.540Z,14.98
2023-04-03T00:38:59.444Z,14.40
2023-04-03T00:41:28.390Z,15.70
2023-04-03T00:43:57.228Z,15.10
2023-04-03T00:46:26.214Z,16.08
2023-04-03T00:48:55.494Z,17.25
2023-04-03T00:51:29.012Z,17.60
2023-04-03T00:54:06.841Z,16.92
2023-04-03T00:56:38.351Z,18.52
2023-04-03T00:59:16.330Z,22.98
2023-04-03T01:01:45.924Z,25.15
2023-04-03T01:04:32.776Z,25.80
2023-04-03T01:07:12.001Z,29.48
2023-04-03T01:09:42.182Z,31.80
2023-04-03T01:12:26.438Z,40.22
2023-04-03T01:14:58.426Z,43.22
2023-04-03T01:17:38.794Z,42.78
2023-04-03T01:20:37.858Z,45.42
2023-04-03T01:23:12.820Z,44.67
2023-04-03T01:28:15.162Z,44.00
2023-04-03T01:30:53.380Z,43.88
2023-04-03T01:33:22.608Z,46.20
2023-04-03T01:35:51.918Z,46.38
2023-04-03T01:38:21.167Z,44.42
2023-04-03T01:40:50.100Z,49.03
2023-04-03T01:43:19.787Z,47.75
2023-04-03T01:45:48.864Z,43.28
2023-04-03T01:48:19.270Z,44.08
2023-04-03T01:50:48.453Z,43.53
2023-04-03T01:53:17.340Z,45.22
2023-04-03T01:55:46.681Z,42.78
2023-04-03T01:58:15.458Z,44.47
2023-04-03T02:00:44.550Z,42.60
2023-04-03T02:03:13.657Z,41.00
2023-04-03T02:05:42.778Z,42.65
2023-04-03T02:08:12.597Z,42.00
2023-04-03T02:10:42.212Z,39.63
2023-04-03T02:13:10.947Z,39.53
2023-04-03T02:15:43.332Z,37.05
2023-04-03T02:20:41.026Z,33.88
2023-04-03T02:23:10.003Z,47.10
2023-04-03T02:25:39.233Z,62.58
2023-04-03T02:28:08.771Z,40.97
2023-04-03T02:30:37.891Z,31.38
2023-04-03T02:33:07.154Z,27.27
2023-04-03T02:35:36.003Z,25.45
2023-04-03T02:38:05.226Z,30.02
2023-04-03T02:40:34.121Z,32.25
2023-04-03T02:43:03.187Z,46.17
2023-04-03T02:45:33.992Z,43.42
2023-04-03T02:48:03.180Z,36.75
2023-04-03T02:50:31.986Z,30.77
2023-04-03T02:53:01.004Z,30.17
2023-04-03T02:55:29.846Z,31.55
2023-04-03T02:57:58.955Z,27.65
2023-04-03T03:00:28.015Z,24.73
2023-04-03T03:02:57.137Z,22.67
2023-04-03T03:05:26.611Z,23.90
2023-04-03T03:07:56.544Z,22.58
2023-04-03T03:10:25.977Z,21.88
2023-04-03T03:12:55.064Z,21.73
2023-04-03T03:15:23.884Z,21.35
2023-04-03T03:17:52.897Z,21.58
2023-04-03T03:20:22.848Z,21.73
2023-04-03T03:22:52.411Z,20.92
2023-04-03T03:25:21.271Z,21.42
2023-04-03T03:27:50.265Z,21.42
2023-04-03T03:30:19.240Z,22.08
2023-04-03T03:32:48.670Z,23.13
2023-04-03T03:35:17.488Z,22.63
2023-04-03T03:37:46.631Z,22.08
2023-04-03T03:40:16.428Z,22.35
2023-04-03T03:42:47.355Z,22.45
2023-04-03T03:45:16.466Z,23.08
2023-04-03T03:47:45.926Z,23.10
2023-04-03T03:50:15.183Z,25.50
2023-04-03T03:52:44.369Z,25.33
2023-04-03T03:55:14.261Z,26.33
2023-04-03T03:57:43.514Z,27.38
2023-04-03T04:00:13.428Z,27.60
2023-04-03T04:02:50.845Z,27.70
2023-04-03T04:05:22.434Z,27.13
2023-04-03T04:07:51.514Z,27.48
2023-04-03T04:10:20.561Z,28.15
2023-04-03T04:12:51.048Z,30.85
2023-04-03T04:15:23.707Z,30.13
2023-04-03T04:17:53.322Z,31.60
2023-04-03T04:20:22.932Z,30.05
2023-04-03T04:22:51.864Z,28.40
2023-04-03T04:25:22.144Z,28.98
2023-04-03T04:27:51.596Z,33.53
2023-04-03T04:30:20.818Z,39.63
2023-04-03T04:32:51.765Z,41.75
2023-04-03T04:35:20.867Z,41.42
2023-04-03T04:37:52.659Z,42.30
2023-04-03T04:40:22.902Z,38.90
2023-04-03T04:42:52.325Z,37.97
2023-04-03T04:45:21.476Z,36.67
2023-04-03T04:47:51.827Z,36.72
2023-04-03T04:50:21.672Z,44.97
2023-04-03T04:52:50.911Z,50.60
2023-04-03T04:55:20.062Z,51.15
2023-04-03T04:57:48.928Z,55.70
2023-04-03T05:00:19.416Z,60.92
2023-04-03T05:02:49.219Z,59.83
2023-04-03T05:05:20.311Z,48.13
2023-04-03T05:07:49.564Z,49.35
2023-04-03T05:10:19.139Z,46.03
2023-04-03T05:12:48.921Z,79.18
2023-04-03T05:15:18.181Z,100.10
2023-04-03T05:17:48.065Z,93.38
2023-04-03T05:20:17.907Z,76.10
2023-04-03T05:22:48.632Z,65.55
2023-04-03T05:25:18.387Z,52.33
2023-04-03T05:27:47.328Z,49.60
2023-04-03T05:30:16.774Z,53.05
2023-04-03T05:32:47.423Z,54.63
2023-04-03T05:35:24.549Z,70.93
2023-04-03T05:37:58.319Z,75.07
2023-04-03T05:40:28.281Z,58.40
2023-04-03T05:46:59.471Z,45.00
2023-04-03T05:49:29.980Z,45.53
2023-04-03T05:52:00.014Z,46.22
2023-04-03T05:54:33.591Z,45.28
2023-04-03T05:57:10.966Z,45.75
2023-04-03T05:59:41.176Z,46.45
2023-04-03T06:02:14.149Z,44.28
2023-04-03T06:04:44.586Z,45.10
2023-04-03T06:07:23.542Z,42.58
2023-04-03T06:09:54.151Z,39.30
2023-04-03T06:12:24.581Z,40.60
2023-04-03T06:14:54.811Z,43.67
2023-04-03T06:17:25.117Z,45.95
2023-04-03T06:19:56.277Z,48.92
2023-04-03T06:23:21.190Z,48.72
2023-04-03T06:25:50.376Z,48.55
2023-04-03T06:32:59.235Z,44.13
2023-04-03T06:35:30.814Z,37.53
2023-04-03T06:38:00.969Z,34.38
2023-04-03T06:40:30.673Z,33.38
2023-04-03T06:43:00.781Z,28.98
2023-04-03T06:45:30.785Z,28.95
2023-04-03T06:48:00.632Z,26.80
2023-04-03T06:50:40.132Z,26.45
2023-04-03T06:53:40.692Z,30.30
2023-04-03T06:56:13.626Z,34.53
2023-04-03T06:58:44.165Z,36.92
2023-04-03T07:01:16.493Z,37.90
2023-04-03T07:23:23.275Z,27.73
2023-04-03T07:25:54.611Z,27.27
2023-04-03T07:28:29.255Z,27.45
2023-04-03T07:32:06.501Z,27.05
2023-04-03T07:34:36.076Z,24.65
2023-04-03T07:37:05.257Z,23.90
2023-04-03T07:39:34.950Z,24.98
2023-04-03T07:42:04.389Z,24.90
2023-04-03T07:44:34.380Z,25.73
2023-04-03T07:47:03.456Z,27.20
2023-04-03T07:49:34.969Z,27.38
2023-04-03T07:52:04.440Z,25.80
2023-04-03T07:54:33.430Z,26.80
2023-04-03T07:57:03.472Z,27.10
2023-04-03T07:59:32.740Z,26.88
2023-04-03T08:02:17.746Z,25.83
2023-04-03T08:04:48.624Z,26.55
2023-04-03T08:07:17.708Z,26.35
2023-04-03T08:09:47.002Z,24.73
2023-04-03T08:12:16.759Z,25.90
2023-04-03T08:14:46.081Z,21.50
2023-04-03T08:17:14.996Z,20.42
2023-04-03T08:19:44.210Z,20.25
2023-04-03T08:22:13.122Z,18.98
2023-04-03T08:24:52.527Z,18.60
2023-04-03T08:27:29.955Z,17.10
2023-04-03T08:29:59.219Z,18.90
2023-04-03T08:32:29.082Z,20.55
2023-04-03T08:34:58.622Z,18.90
2023-04-03T08:37:27.397Z,20.55
2023-04-03T08:39:56.921Z,21.60
2023-04-03T08:42:41.737Z,22.15
2023-04-03T08:45:23.905Z,23.27
2023-04-03T08:48:03.854Z,26.25
2023-04-03T08:50:40.136Z,26.27
2023-04-03T08:53:17.667Z,27.25
2023-04-03T08:55:52.786Z,26.80
2023-04-03T08:58:25.978Z,27.73
2023-04-03T09:01:00.621Z,29.83
2023-04-03T09:03:33.439Z,29.55
2023-04-03T09:06:26.299Z,30.20
2023-04-03T09:08:55.231Z,30.80
2023-04-03T09:11:47.306Z,32.08
2023-04-03T09:14:31.684Z,30.20
2023-04-03T09:17:05.188Z,29.42
2023-04-03T09:19:34.769Z,29.10
2023-04-03T09:22:26.349Z,30.98
2023-04-03T09:25:04.079Z,29.85
2023-04-03T09:27:33.279Z,30.17
2023-04-03T09:30:02.208Z,30.60
2023-04-03T09:32:34.476Z,30.65
2023-04-03T09:35:20.569Z,31.65
2023-04-03T09:37:58.764Z,28.63
2023-04-03T09:40:27.843Z,24.35
2023-04-03T09:43:03.779Z,24.38
2023-04-03T09:45:35.705Z,22.70
2023-04-03T09:48:18.087Z,21.55
2023-04-03T09:50:53.168Z,20.20
2023-04-03T09:53:38.009Z,20.10
2023-04-03T09:56:22.587Z,20.42
2023-04-03T09:59:09.441Z,22.52
2023-04-03T10:01:41.883Z,26.70
2023-04-03T10:04:20.111Z,25.05
2023-04-03T10:06:52.592Z,25.45
2023-04-03T10:09:30.143Z,28.35
2023-04-03T10:12:09.100Z,29.05
2023-04-03T10:14:40.428Z,28.63
2023-04-03T10:17:22.398Z,31.38
2023-04-03T10:20:11.892Z,31.92
2023-04-03T10:23:29.774Z,37.10
2023-04-03T10:25:58.754Z,39.80
2023-04-03T10:28:36.390Z,40.53
2023-04-03T10:31:09.336Z,39.83
2023-04-03T10:33:53.425Z,41.45
2023-04-03T10:36:22.505Z,43.85
2023-04-03T10:39:07.357Z,43.78
2023-04-03T10:42:15.207Z,44.17
2023-04-03T10:44:48.909Z,45.78
2023-04-03T10:47:23.762Z,45.22
2023-04-03T10:50:14.635Z,45.92
2023-04-03T10:52:58.621Z,46.92
2023-04-03T10:55:36.778Z,45.03
2023-04-03T10:58:09.201Z,45.78
2023-04-03T11:00:54.739Z,44.88
2023-04-03T11:03:52.552Z,45.88
2023-04-03T11:06:26.989Z,46.17
2023-04-03T11:09:08.688Z,43.35
2023-04-03T11:11:40.900Z,43.58
2023-04-03T11:14:18.226Z,43.88
2023-04-03T11:17:11.152Z,44.38
2023-04-03T11:20:10.928Z,42.90
2023-04-03T11:22:47.201Z,46.85
2023-04-03T11:25:27.880Z,48.78
2023-04-03T11:28:00.002Z,43.65
2023-04-03T11:30:58.264Z,41.92
2023-04-03T11:33:30.972Z,45.47
2023-04-03T11:36:34.748Z,43.90
2023-04-03T11:39:27.952Z,44.95
2023-04-03T11:42:06.817Z,40.57
2023-04-03T11:44:41.058Z,41.85
2023-04-03T11:47:13.775Z,41.25
2023-04-03T11:50:05.072Z,42.45
2023-04-03T11:52:44.932Z,41.17
2023-04-03T11:55:26.045Z,40.97
2023-04-03T11:58:01.133Z,41.38
2023-04-03T12:00:52.791Z,43.10
2023-04-03T12:03:28.489Z,44.10
2023-04-03T12:06:11.732Z,44.17
2023-04-03T12:08:49.433Z,47.13
2023-04-03T12:11:33.568Z,45.10
2023-04-03T12:14:02.520Z,47.17
2023-04-03T12:16:40.333Z,48.33
2023-04-03T12:19:18.636Z,45.63
2023-04-03T12:21:53.880Z,46.47
2023-04-03T12:24:38.261Z,43.88
2023-04-03T12:27:39.015Z,41.85
2023-04-03T12:30:17.177Z,44.35
2023-04-03T12:33:12.519Z,41.47
2023-04-03T12:35:57.132Z,41.72
2023-04-03T12:38:35.245Z,44.88
2023-04-03T12:41:12.757Z,42.97
2023-04-03T12:44:06.453Z,43.50
2023-04-03T12:46:47.938Z,44.47
2023-04-03T12:49:32.126Z,42.53
2023-04-03T12:52:01.848Z,40.95
2023-04-03T12:54:33.515Z,40.72
2023-04-03T12:57:34.848Z,43.78
2023-04-03T13:00:23.044Z,39.38
2023-04-03T13:02:52.433Z,41.97
2023-04-03T13:05:23.720Z,41.03
2023-04-03T13:08:05.108Z,41.45
2023-04-03T13:10:45.413Z,40.47
2023-04-03T13:13:17.786Z,43.60
2023-04-03T13:15:51.033Z,41.38
2023-04-03T13:18:37.451Z,40.35
2023-04-03T13:21:10.660Z,41.50
2023-04-03T13:23:45.679Z,42.65
2023-04-03T13:26:18.187Z,41.20
2023-04-03T13:28:49.755Z,42.47
2023-04-03T13:31:29.861Z,42.63
2023-04-03T13:34:07.908Z,44.85
2023-04-03T13:36:43.150Z,45.15
2023-04-03T13:39:18.281Z,43.33
2023-04-03T13:41:54.191Z,45.45
2023-04-03T13:44:26.274Z,48.47
2023-04-03T13:47:16.776Z,46.38
2023-04-03T13:50:00.361Z,45.75
2023-04-03T13:52:39.836Z,42.53
2023-04-03T13:55:26.024Z,45.10
2023-04-03T13:58:23.820Z,44.35
2023-04-03T14:01:01.530Z,44.30
2023-04-03T14:03:40.369Z,42.90
2023-04-03T14:06:13.132Z,41.10
2023-04-03T14:11:34.741Z,42.40
2023-04-03T14:14:08.466Z,41.25
2023-04-03T14:16:42.891Z,40.28
2023-04-03T14:19:38.173Z,44.42
2023-04-03T14:22:32.168Z,43.78
2023-04-03T14:25:02.068Z,43.20
2023-04-03T14:27:37.494Z,44.25
2023-04-03T14:30:11.426Z,44.80
2023-04-03T14:32:40.532Z,44.95
2023-04-03T14:35:09.682Z,46.15
2023-04-03T14:37:38.776Z,42.65
2023-04-03T14:40:11.014Z,41.42
2023-04-03T14:42:40.220Z,38.17
2023-04-03T14:45:13.362Z,36.53
2023-04-03T14:47:49.595Z,32.00
2023-04-03T14:50:23.472Z,32.13
2023-04-03T14:52:55.855Z,32.20
2023-04-03T14:57:55.093Z,28.55
2023-04-03T15:00:24.973Z,26.98
2023-04-03T15:02:54.299Z,30.60
2023-04-03T15:05:23.498Z,32.42
2023-04-03T15:07:54.476Z,30.25
2023-04-03T15:10:31.972Z,44.08
2023-04-03T15:13:01.196Z,43.75
2023-04-03T15:15:32.446Z,38.70
2023-04-03T15:18:02.040Z,44.80
2023-04-03T15:20:32.851Z,52.38
2023-04-03T15:23:06.873Z,47.40
2023-04-03T15:25:35.967Z,40.95
2023-04-03T15:28:04.832Z,158.93
2023-04-03T15:30:33.855Z,121.72
2023-04-03T15:33:02.621Z,64.97
2023-04-03T15:35:31.703Z,32.95
2023-04-03T15:38:00.470Z,29.85
2023-04-03T15:40:29.960Z,26.05
2023-04-03T15:42:58.669Z,25.30
2023-04-03T15:45:30.670Z,25.90
2023-04-03T15:48:00.314Z,24.63
2023-04-03T15:50:29.483Z,38.10
2023-04-03T15:52:59.990Z,30.98
2023-04-03T15:55:32.387Z,37.95
2023-04-03T15:58:01.826Z,28.08
2023-04-03T16:00:31.476Z,27.63
2023-04-03T16:03:08.679Z,27.15
2023-04-03T16:05:40.594Z,28.98
2023-04-03T16:08:10.190Z,32.45
2023-04-03T16:10:40.128Z,35.22
2023-04-03T16:13:09.379Z,37.50
2023-04-03T16:15:39.159Z,40.15
2023-04-03T16:18:08.229Z,38.33
2023-04-03T16:20:37.967Z,45.40
2023-04-03T16:23:07.442Z,50.13
2023-04-03T16:25:40.013Z,49.17
2023-04-03T16:28:09.850Z,45.65
2023-04-03T16:30:38.648Z,46.00
2023-04-03T16:33:07.847Z,39.25
2023-04-03T16:35:37.188Z,39.58
2023-04-03T16:38:07.346Z,46.70
2023-04-03T16:40:36.743Z,46.60
2023-04-03T16:43:05.782Z,46.75
2023-04-03T16:45:34.684Z,46.25
2023-04-03T16:48:03.658Z,47.50
2023-04-03T16:50:32.482Z,48.92
2023-04-03T16:53:01.645Z,51.33
2023-04-03T16:55:30.420Z,49.67
2023-04-03T16:57:59.395Z,52.72
2023-04-03T17:00:28.106Z,51.63
2023-04-03T17:02:57.046Z,58.60
2023-04-03T17:05:26.221Z,68.70
2023-04-03T17:07:55.178Z,69.07
2023-04-03T17:10:23.846Z,62.85
2023-04-03T17:12:52.901Z,77.68
2023-04-03T17:15:22.075Z,78.43
2023-04-03T17:17:53.630Z,59.70
2023-04-03T17:20:22.663Z,52.28
2023-04-03T17:22:51.649Z,64.38
2023-04-03T17:25:20.876Z,60.78
2023-04-03T17:27:49.703Z,69.97
2023-04-03T17:30:18.881Z,67.00
2023-04-03T17:32:47.811Z,50.78
2023-04-03T17:35:16.997Z,52.47
2023-04-03T17:37:45.705Z,55.33
2023-04-03T17:40:15.964Z,49.53
2023-04-03T17:42:44.942Z,46.63
2023-04-03T17:45:13.750Z,44.13
2023-04-03T17:47:42.811Z,37.47
2023-04-03T17:50:12.343Z,34.67
2023-04-03T17:52:41.312Z,42.80
2023-04-03T17:55:10.269Z,40.80
2023-04-03T17:57:39.226Z,43.03
2023-04-03T18:00:10.308Z,52.13
2023-04-03T18:02:43.237Z,44.88
2023-04-03T18:05:12.422Z,41.58
2023-04-03T18:07:42.651Z,39.75
2023-04-03T18:10:12.164Z,38.70
2023-04-03T18:12:43.394Z,38.88
2023-04-03T18:15:13.265Z,34.55
2023-04-03T18:17:42.361Z,36.85
2023-04-03T18:20:12.775Z,37.53
2023-04-03T18:22:42.409Z,38.35
2023-04-03T18:25:12.559Z,36.58
2023-04-03T18:27:42.234Z,38.53
2023-04-03T18:30:14.422Z,44.30
2023-04-03T18:35:12.859Z,52.25
2023-04-03T18:37:41.834Z,51.22
2023-04-03T18:40:11.298Z,59.25
2023-04-03T18:42:42.237Z,62.20
2023-04-03T18:45:13.134Z,73.88
2023-04-03T18:47:42.263Z,86.13
2023-04-03T18:50:11.424Z,81.07
2023-04-03T18:52:40.633Z,70.85
2023-04-03T18:55:12.068Z,76.10
2023-04-03T18:57:40.981Z,66.18
2023-04-03T19:00:10.291Z,63.55
2023-04-03T19:02:39.773Z,63.90
2023-04-03T19:05:12.326Z,62.25
2023-04-03T19:07:45.645Z,65.47
2023-04-03T19:10:18.291Z,66.55
2023-04-03T19:12:52.947Z,66.00
2023-04-03T19:15:25.238Z,63.35
2023-04-03T19:17:54.583Z,69.25
2023-04-03T19:20:23.416Z,73.25
2023-04-03T19:22:52.355Z,66.85
2023-04-03T19:25:21.426Z,63.47
2023-04-03T19:27:51.133Z,62.58
2023-04-03T19:30:19.989Z,66.53
2023-04-03T19:32:48.873Z,71.78
2023-04-03T19:35:17.599Z,72.57
2023-04-03T19:37:50.065Z,70.05
2023-04-03T19:42:48.245Z,66.43
2023-04-03T19:45:19.035Z,63.47
2023-04-03T19:47:48.388Z,61.97
2023-04-03T19:50:17.330Z,58.75
2023-04-03T19:52:46.610Z,51.85
2023-04-03T19:55:15.813Z,49.05
2023-04-03T19:57:44.771Z,45.17
2023-04-03T20:00:14.875Z,38.63
2023-04-03T20:02:44.323Z,36.50
2023-04-03T20:05:13.627Z,31.98
2023-04-03T20:07:43.565Z,28.00
2023-04-03T20:10:14.100Z,24.80
2023-04-03T20:12:44.344Z,23.13
2023-04-03T20:15:15.046Z,26.45
2023-04-03T20:17:45.449Z,28.02
2023-04-03T20:20:16.103Z,25.75
2023-04-03T20:22:46.424Z,22.85
2023-04-03T20:25:23.657Z,22.40
2023-04-03T20:28:06.923Z,23.25
2023-04-03T20:30:36.752Z,25.60
2023-04-03T20:33:08.362Z,25.33
2023-04-03T20:35:38.147Z,27.50
2023-04-03T20:38:08.752Z,28.17
2023-04-03T20:40:39.483Z,31.63
2023-04-03T20:43:09.928Z,29.58
2023-04-03T20:45:40.602Z,30.27
2023-04-03T20:48:10.733Z,27.63
2023-04-03T20:50:40.915Z,29.05
2023-04-03T20:53:11.363Z,24.10
2023-04-03T20:55:41.422Z,21.98
2023-04-03T20:58:11.715Z,23.45
2023-04-03T21:00:43.098Z,29.25
2023-04-03T21:03:15.016Z,24.95
2023-04-03T21:05:45.558Z,26.60
2023-04-03T21:08:52.345Z,17.30
2023-04-03T21:11:59.273Z,28.55
2023-04-03T21:15:06.338Z,17.67
2023-04-03T21:17:36.073Z,10.93
2023-04-03T21:20:06.032Z,8.45
2023-04-03T21:22:36.677Z,11.63
2023-04-03T21:25:07.249Z,15.48
2023-04-03T21:27:37.839Z,7.15
2023-04-03T21:30:08.802Z,9.48
2023-04-03T21:32:39.072Z,6.00
2023-04-03T21:35:10.506Z,5.75
2023-04-03T21:37:40.098Z,9.13
2023-04-03T21:40:09.374Z,3.95
2023-04-03T21:42:38.542Z,5.55
2023-04-03T21:45:07.598Z,4.20
2023-04-03T21:47:37.522Z,4.22
2023-04-03T21:50:06.768Z,4.15
2023-04-03T21:52:35.552Z,4.57
2023-04-03T21:55:04.669Z,5.10
2023-04-03T21:57:33.384Z,4.53
2023-04-03T22:00:02.856Z,4.85
2023-04-03T22:02:34.684Z,3.35
2023-04-03T22:05:04.570Z,4.15
2023-04-03T22:07:33.299Z,4.88
2023-04-03T22:10:02.491Z,7.00
2023-04-03T22:12:31.554Z,10.30
2023-04-03T22:15:02.832Z,7.35
2023-04-03T22:17:32.147Z,5.18
2023-04-03T22:20:00.800Z,10.05
2023-04-03T22:22:29.822Z,5.63
2023-04-03T22:24:58.594Z,6.32
2023-04-03T22:27:27.499Z,9.13
2023-04-03T22:29:56.371Z,6.43
2023-04-03T22:32:25.593Z,4.70
2023-04-03T22:34:54.661Z,6.55
2023-04-03T22:37:23.782Z,21.23
2023-04-03T22:39:52.841Z,54.67
2023-04-03T22:42:22.276Z,40.13
2023-04-03T22:44:51.273Z,15.55
2023-04-03T22:47:20.156Z,7.80
2023-04-03T22:49:48.806Z,8.00
2023-04-03T22:52:20.188Z,19.65
2023-04-03T22:54:49.173Z,13.70
2023-04-03T22:57:17.840Z,8.63
2023-04-03T22:59:46.790Z,8.80
2023-04-03T23:02:15.803Z,8.70
2023-04-03T23:04:44.926Z,8.00
2023-04-03T23:07:14.292Z,7.10
2023-04-03T23:09:43.428Z,7.13
2023-04-03T23:12:12.189Z,6.32
2023-04-03T23:14:41.381Z,7.40
2023-04-03T23:17:10.983Z,6.78
2023-04-03T23:19:40.104Z,8.05
2023-04-03T23:22:09.063Z,7.30
2023-04-03T23:24:38.470Z,5.47
2023-04-03T23:27:07.516Z,5.65
2023-04-03T23:29:36.544Z,5.50
2023-04-03T23:32:05.308Z,4.78
2023-04-03T23:34:34.373Z,5.50
2023-04-03T23:37:03.204Z,4.88
2023-04-03T23:39:32.090Z,4.55
2023-04-03T23:42:00.961Z,3.90
2023-04-03T23:44:30.057Z,3.67
2023-04-03T23:46:59.952Z,4.07
2023-04-03T23:49:29.883Z,4.35
2023-04-03T23:51:58.719Z,4.22
2023-04-03T23:54:27.615Z,5.68
2023-04-03T23:56:56.518Z,6.38
2023-04-03T23:59:25.524Z,5.78
